Nearby METAR Reports

 

EGVN - Brize Norton Raf, United Kingdom
Distance from station: SSE 20mi, 32km
Updated: 10/12/2017 23:50
Mist, Overcast
Mist, Overcast
 Wind from ESE
Wind: ESE 6 mph , 9 km/h
Temperature: 1°C
Wind Chill: -2°C
Dew Point: 0°C
Humidity: 93%
Barometer: 981 hPa
Summary: Mist
Clouds: Overcast
Visibility: 4 miles , 6 km
Cloud details: Overcast 152 m
2017/12/10 23:50 EGVN 102350Z 11005KT 6000 BR OVC005 01/00 Q0981 YLO1 TEMPO 4000 -SN BKN004 YLO2
EGTK - Oxford, United Kingdom
Distance from station: SE 22mi, 35km
Updated: 10/12/2017 19:50
NOT Current
Light snow, Overcast
Light snow, Overcast
 Wind from NNE
Wind: NNE 5 mph , 7 km/h
Temperature: 0°C
Wind Chill: -3°C
Dew Point: 0°C
Humidity: 100%
Barometer: 979 hPa
Summary: Light Snow
Clouds: Overcast
Visibility: 2 miles , 4 km
Cloud details: Few Clouds 213 m
Overcast 305 m
2017/12/10 19:50 EGTK 101950Z 03004KT 3700 -SN FEW007 OVC010 00/00 Q0979
 
EGBJ - Staverton (priva, United Kingdom
Distance from station: WSW 23mi, 36km
Updated: 10/12/2017 16:20
NOT Current
Light snow, Overcast
Light snow, Overcast
 Wind from calm
Wind: Calm
Temperature: 1°C
Dew Point: 1°C
Humidity: 100%
Barometer: 978 hPa
Summary: Light Snow
Clouds: Overcast
Visibility: 2 miles , 3 km
Cloud details: Overcast 244 m
2017/12/10 16:20 EGBJ 101620Z 00000KT 2500 -SN OVC008 01/01 Q0978
EGVA - Fairford Raf, United Kingdom
Distance from station: S 27mi, 43km
Updated: 11/12/2017 00:01
Overcast
Overcast
 Wind from E
Wind: E 5 mph , 7 km/h
Clouds: Overcast
Visibility: 6 miles , 10 km
Cloud details: Overcast 152 m
2017/12/11 00:01 EGVA 110001Z AUTO 09004KT 9999 OVC005 M A2897 RMK AO2 CIG 004 RWY09 SLPNO ALSTG ESTMD $
 
EGBB - Birmingham Airpo, United Kingdom
Distance from station: N 29mi, 46km
Updated: 10/12/2017 23:50
Snow, Partly cloudy
Snow, Partly cloudy
 Wind from NNE
Wind: NNE 8 mph , 13 km/h
Temperature: 0°C
Wind Chill: -4°C
Dew Point: 0°C
Humidity: 100%
Barometer: 982 hPa
Summary: Snow
Clouds: Partly cloudy
Visibility: 2 miles , 4 km
2017/12/10 23:50 EGBB 102350Z 02007KT 3500 SN NSC M00/M00 Q0982 RESN
EGUB - Benson Raf, United Kingdom
Distance from station: SE 40mi, 65km
Updated: 10/12/2017 23:50
Overcast
Overcast
 Wind from NNE
Wind: NNE 2 mph , 4 km/h
Temperature: 1°C
Dew Point: 0°C
Humidity: 93%
Barometer: 981 hPa
Clouds: Overcast
Visibility: 4 miles , 7 km
Cloud details: Overcast 152 m
2017/12/10 23:50 EGUB 102350Z AUTO 03002KT 7000 // OVC005/// 01/00 Q0981
 
EGTC - Cranfield, United Kingdom
Distance from station: E 46mi, 74km
Updated: 09/12/2017 15:50
NOT Current
Clear
Clear
 Wind from SW
Wind: SW 8 mph , 13 km/h
Temperature: 0°C
Wind Chill: -4°C
Dew Point: -1°C
Humidity: 93%
Barometer: 1011 hPa
Summary: Clear
Visibility: greater than 7 miles , 10 km
2017/12/09 15:50 EGTC 091550Z 23007KT CAVOK M00/M01 Q1011
EGWC - Cosford Raf, United Kingdom
Distance from station: NNW 46mi, 75km
Updated: 08/12/2017 07:50
NOT Current
Snow showers, Mostly cloudy
Snow showers, Mostly cloudy
 Wind from WNW
Wind: WNW 10 mph , 17 km/h
Temperature: 1°C
Wind Chill: -3°C
Dew Point: 0°C
Humidity: 93%
Summary: Snow Showers
Clouds: Mostly cloudy
Visibility: 1 mile , 2 km
Cloud details: Partly cloudy 244 m
Mostly cloudy 305 m
2017/12/08 07:50 EGWC 080750Z 29009KT 1500 SHSN SCT008 BKN010 01/00 Q105 AMB